createdAt,value
2022-08-22T00:01:56.554Z,100620.41
2022-08-22T00:04:34.430Z,100622.81
2022-08-22T00:07:09.264Z,100627.41
2022-08-22T00:09:45.310Z,100623.38
2022-08-22T00:12:22.723Z,100627.16
2022-08-22T00:14:59.120Z,100633.63
2022-08-22T00:17:41.120Z,100632.03
2022-08-22T00:20:16.687Z,100622.31
2022-08-22T00:22:52.535Z,100624.19
2022-08-22T00:25:45.499Z,100620.19
2022-08-22T00:28:17.930Z,100635.53
2022-08-22T00:30:59.640Z,100628.50
2022-08-22T00:33:36.525Z,100623.13
2022-08-22T00:36:13.735Z,100629.06
2022-08-22T00:38:47.832Z,100631.22
2022-08-22T00:41:31.713Z,100631.78
2022-08-22T00:44:23.183Z,100624.78
2022-08-22T00:47:07.865Z,100613.75
2022-08-22T00:49:56.524Z,100617.78
2022-08-22T00:52:41.414Z,100617.28
2022-08-22T00:55:28.079Z,100615.94
2022-08-22T00:58:40.261Z,100612.16
2022-08-22T01:01:11.298Z,100604.09
2022-08-22T01:03:53.936Z,100604.34
2022-08-22T01:06:30.792Z,100612.19
2022-08-22T01:09:05.904Z,100607.34
2022-08-22T01:12:00.532Z,100612.44
2022-08-22T01:14:39.879Z,100602.75
2022-08-22T01:17:45.575Z,100599.81
2022-08-22T01:21:16.866Z,100601.97
2022-08-22T01:24:59.988Z,100604.94
2022-08-22T01:28:07.359Z,100595.50
2022-08-22T01:30:57.827Z,100601.47
2022-08-22T01:34:18.307Z,100594.19
2022-08-22T01:37:10.329Z,100593.94
2022-08-22T01:40:02.240Z,100587.19
2022-08-22T01:42:54.881Z,100587.75
2022-08-22T01:45:59.557Z,100591.53
2022-08-22T01:48:36.080Z,100589.09
2022-08-22T01:51:18.405Z,100585.06
2022-08-22T01:54:01.669Z,100589.88
2022-08-22T01:56:37.009Z,100593.66
2022-08-22T01:59:10.059Z,100596.09
2022-08-22T02:01:53.603Z,100602.28
2022-08-22T02:04:34.614Z,100589.66
2022-08-22T02:07:09.086Z,100592.06
2022-08-22T02:09:46.457Z,100602.28
2022-08-22T02:12:28.080Z,100603.34
2022-08-22T02:15:09.386Z,100600.66
2022-08-22T02:17:55.016Z,100592.59
2022-08-22T02:20:28.608Z,100588.84
2022-08-22T02:23:04.971Z,100590.44
2022-08-22T02:25:47.174Z,100581.81
2022-08-22T02:28:20.862Z,100579.97
2022-08-22T02:30:54.553Z,100588.03
2022-08-22T02:33:32.577Z,100578.09
2022-08-22T02:36:08.213Z,100580.78
2022-08-22T02:38:44.058Z,100570.00
2022-08-22T02:41:19.832Z,100563.84
2022-08-22T02:43:53.171Z,100564.88
2022-08-22T02:46:31.183Z,100571.06
2022-08-22T02:49:10.302Z,100567.84
2022-08-22T02:51:50.849Z,100574.03
2022-08-22T02:54:29.141Z,100569.47
2022-08-22T02:57:06.266Z,100568.66
2022-08-22T03:00:32.088Z,100574.31
2022-08-22T03:03:05.634Z,100554.13
2022-08-22T03:05:49.300Z,100575.41
2022-08-22T03:08:23.836Z,100572.16
2022-08-22T03:11:04.705Z,100568.66
2022-08-22T03:13:47.653Z,100574.31
2022-08-22T03:16:22.678Z,100566.53
2022-08-22T03:19:00.651Z,100567.59
2022-08-22T03:21:35.282Z,100559.78
2022-08-22T03:24:13.579Z,100546.34
2022-08-22T03:26:50.422Z,100559.25
2022-08-22T03:29:24.081Z,100556.03
2022-08-22T03:32:15.196Z,100563.53
2022-08-22T03:34:59.267Z,100553.63
2022-08-22T03:37:40.867Z,100556.56
2022-08-22T03:40:23.974Z,100553.03
2022-08-22T03:43:33.981Z,100549.53
2022-08-22T03:46:24.312Z,100552.22
2022-08-22T03:49:21.533Z,100551.69
2022-08-22T03:52:19.165Z,100550.09
2022-08-22T03:55:18.361Z,100550.34
2022-08-22T03:58:22.285Z,100546.84
2022-08-22T04:01:25.935Z,100551.44
2022-08-22T04:04:27.768Z,100537.44
2022-08-22T04:07:33.447Z,100547.41
2022-08-22T04:10:26.875Z,100542.28
2022-08-22T04:13:18.499Z,100542.28
2022-08-22T04:16:30.186Z,100538.78
2022-08-22T04:19:19.436Z,100549.53
2022-08-22T04:22:20.663Z,100549.53
2022-08-22T04:24:59.626Z,100548.22
2022-08-22T04:27:32.896Z,100547.94
2022-08-22T04:30:07.514Z,100556.81
2022-08-22T04:32:43.703Z,100553.31
2022-08-22T04:35:20.157Z,100560.31
2022-08-22T04:37:53.328Z,100556.81
2022-08-22T04:40:26.896Z,100553.88
2022-08-22T04:43:03.752Z,100552.22
2022-08-22T04:45:36.868Z,100556.56
2022-08-22T04:48:09.805Z,100543.34
2022-08-22T04:50:45.303Z,100548.75
2022-08-22T04:53:26.915Z,100552.22
2022-08-22T04:56:07.277Z,100557.59
2022-08-22T04:58:45.078Z,100559.25
2022-08-22T05:01:20.731Z,100561.09
2022-08-22T05:03:54.923Z,100554.91
2022-08-22T05:06:28.618Z,100558.41
2022-08-22T05:09:00.900Z,100558.69
2022-08-22T05:11:30.964Z,100561.66
2022-08-22T05:14:04.439Z,100567.84
2022-08-22T05:16:37.807Z,100565.44
2022-08-22T05:19:15.713Z,100566.75
2022-08-22T05:21:49.520Z,100570.00
2022-08-22T05:24:28.099Z,100563.00
2022-08-22T05:26:58.668Z,100580.75
2022-08-22T05:29:32.657Z,100574.31
2022-08-22T05:32:04.356Z,100576.19
2022-08-22T05:34:37.522Z,100571.63
2022-08-22T05:37:14.204Z,100573.22
2022-08-22T05:39:48.616Z,100563.53
2022-08-22T05:42:23.596Z,100572.13
2022-08-22T05:44:51.913Z,100578.59
2022-08-22T05:47:23.978Z,100576.44
2022-08-22T05:50:00.627Z,100583.44
2022-08-22T05:52:43.543Z,100573.50
2022-08-22T05:55:25.444Z,100566.22
2022-08-22T05:58:20.779Z,100562.47
2022-08-22T06:00:55.334Z,100547.41
2022-08-22T06:03:28.940Z,100553.59
2022-08-22T06:06:01.250Z,100551.69
2022-08-22T06:08:35.429Z,100549.53
2022-08-22T06:11:10.482Z,100550.34
2022-08-22T06:13:41.738Z,100549.00
2022-08-22T06:16:17.969Z,100553.31
2022-08-22T06:18:46.681Z,100554.91
2022-08-22T06:21:21.855Z,100553.63
2022-08-22T06:23:56.705Z,100553.06
2022-08-22T06:26:26.883Z,100552.00
2022-08-22T06:28:59.574Z,100554.13
2022-08-22T06:31:32.473Z,100553.59
2022-08-22T06:34:05.893Z,100554.69
2022-08-22T06:36:36.635Z,100558.97
2022-08-22T06:39:14.953Z,100557.38
2022-08-22T06:41:50.460Z,100568.38
2022-08-22T06:44:23.304Z,100564.63
2022-08-22T06:46:55.393Z,100565.66
2022-08-22T06:49:26.165Z,100578.06
2022-08-22T06:51:58.719Z,100579.13
2022-08-22T06:54:34.411Z,100583.97
2022-08-22T06:57:04.605Z,100576.41
2022-08-22T06:59:37.933Z,100585.56
2022-08-22T07:02:17.735Z,100575.34
2022-08-22T07:04:50.127Z,100588.78
2022-08-22T07:07:21.017Z,100587.44
2022-08-22T07:09:55.480Z,100591.19
2022-08-22T07:12:27.269Z,100587.16
2022-08-22T07:15:00.672Z,100594.38
2022-08-22T07:17:31.447Z,100596.81
2022-08-22T07:20:04.999Z,100594.66
2022-08-22T07:22:36.517Z,100604.09
2022-08-22T07:25:11.002Z,100597.34
2022-08-22T07:27:53.704Z,100606.75
2022-08-22T07:30:27.504Z,100615.38
2022-08-22T07:33:23.634Z,100609.72
2022-08-22T07:35:56.901Z,100617.28
2022-08-22T07:38:36.341Z,100606.50
2022-08-22T07:41:14.033Z,100607.00
2022-08-22T07:43:46.943Z,100600.56
2022-08-22T07:46:29.726Z,100600.00
2022-08-22T07:49:10.313Z,100592.72
2022-08-22T07:51:44.549Z,100595.69
2022-08-22T07:54:15.825Z,100598.38
2022-08-22T07:56:52.838Z,100599.44
2022-08-22T07:59:22.517Z,100600.53
2022-08-22T08:01:54.113Z,100597.56
2022-08-22T08:04:25.171Z,100598.66
2022-08-22T08:06:56.188Z,100591.66
2022-08-22T08:09:26.354Z,100587.06
2022-08-22T08:11:55.844Z,100595.66
2022-08-22T08:14:25.273Z,100601.56
2022-08-22T08:17:03.789Z,100596.44
2022-08-22T08:19:34.448Z,100587.28
2022-08-22T08:22:04.969Z,100587.03
2022-08-22T08:24:40.975Z,100596.69
2022-08-22T08:27:34.996Z,100598.84
2022-08-22T08:30:06.659Z,100594.47
2022-08-22T08:32:38.667Z,100584.75
2022-08-22T08:35:23.314Z,100582.31
2022-08-22T08:37:58.363Z,100574.72
2022-08-22T08:40:48.526Z,100579.81
2022-08-22T08:43:30.191Z,100567.88
2022-08-22T08:46:39.291Z,100566.16
2022-08-22T08:49:25.931Z,100563.34
2022-08-22T08:52:21.417Z,100565.63
2022-08-22T08:55:02.467Z,100555.53
2022-08-22T08:58:10.237Z,100557.50
2022-08-22T09:00:55.830Z,100556.28
2022-08-22T09:03:51.511Z,100557.78
2022-08-22T09:06:43.905Z,100550.66
2022-08-22T09:09:41.270Z,100557.31
2022-08-22T09:12:56.226Z,100557.78
2022-08-22T09:15:43.817Z,100551.00
2022-08-22T09:18:58.083Z,100554.91
2022-08-22T09:21:55.542Z,100553.47
2022-08-22T09:24:49.108Z,100550.38
2022-08-22T09:27:25.184Z,100544.69
2022-08-22T09:30:00.826Z,100540.53
2022-08-22T09:32:44.077Z,100547.75
2022-08-22T09:35:23.321Z,100550.91
2022-08-22T09:38:11.037Z,100548.34
2022-08-22T09:40:45.694Z,100545.25
2022-08-22T09:43:21.146Z,100537.59
2022-08-22T09:45:57.895Z,100540.66
2022-08-22T09:48:50.070Z,100541.28
2022-08-22T09:51:34.540Z,100543.53
2022-08-22T09:54:31.217Z,100547.16
2022-08-22T09:57:15.108Z,100537.56
2022-08-22T10:00:02.077Z,100541.38
2022-08-22T10:02:36.706Z,100537.66
2022-08-22T10:05:40.636Z,100538.44
2022-08-22T10:08:20.668Z,100538.22
2022-08-22T10:11:33.547Z,100538.13
2022-08-22T10:14:12.576Z,100542.81
2022-08-22T10:16:54.511Z,100535.91
2022-08-22T10:19:29.928Z,100528.97
2022-08-22T10:22:29.852Z,100532.06
2022-08-22T10:25:18.536Z,100528.84
2022-08-22T10:27:57.079Z,100521.63
2022-08-22T10:30:29.118Z,100521.19
2022-08-22T10:33:03.545Z,100519.38
2022-08-22T10:35:39.017Z,100515.41
2022-08-22T10:38:25.312Z,100516.78
2022-08-22T10:41:01.714Z,100511.94
2022-08-22T10:43:38.909Z,100503.81
2022-08-22T10:46:14.369Z,100496.91
2022-08-22T10:48:48.985Z,100502.38
2022-08-22T10:51:25.466Z,100499.53
2022-08-22T10:54:19.845Z,100500.38
2022-08-22T10:56:55.586Z,100493.72
2022-08-22T10:59:44.720Z,100494.84
2022-08-22T11:02:39.445Z,100498.72
2022-08-22T11:05:33.775Z,100494.25
2022-08-22T11:08:14.647Z,100503.88
2022-08-22T11:11:03.158Z,100495.75
2022-08-22T11:13:42.303Z,100488.13
2022-08-22T11:16:24.926Z,100486.88
2022-08-22T11:19:15.023Z,100484.19
2022-08-22T11:21:57.928Z,100482.59
2022-08-22T11:24:58.063Z,100485.97
2022-08-22T11:27:39.786Z,100476.22
2022-08-22T11:30:18.693Z,100474.00
2022-08-22T11:33:17.859Z,100467.91
2022-08-22T11:35:54.440Z,100466.63
2022-08-22T11:38:32.622Z,100463.91
2022-08-22T11:41:05.269Z,100465.34
2022-08-22T11:43:44.591Z,100460.56
2022-08-22T11:46:23.066Z,100469.00
2022-08-22T11:49:18.975Z,100464.88
2022-08-22T11:51:57.433Z,100466.94
2022-08-22T11:54:35.102Z,100457.22
2022-08-22T11:57:08.617Z,100460.09
2022-08-22T12:00:01.753Z,100458.81
2022-08-22T12:02:42.198Z,100449.38
2022-08-22T12:05:20.214Z,100469.25
2022-08-22T12:07:57.752Z,100459.34
2022-08-22T12:10:31.497Z,100460.63
2022-08-22T12:13:06.257Z,100455.34
2022-08-22T12:15:43.605Z,100452.16
2022-08-22T12:18:31.155Z,100449.41
2022-08-22T12:21:19.074Z,100453.56
2022-08-22T12:24:11.279Z,100443.78
2022-08-22T12:27:03.194Z,100445.22
2022-08-22T12:29:45.438Z,100445.38
2022-08-22T12:32:52.126Z,100431.13
2022-08-22T12:35:32.709Z,100439.94
2022-08-22T12:38:28.798Z,100429.06
2022-08-22T12:41:35.888Z,100429.84
2022-08-22T12:44:21.352Z,100418.94
2022-08-22T12:47:04.309Z,100406.81
2022-08-22T12:49:49.773Z,100410.16
2022-08-22T12:52:33.108Z,100409.69
2022-08-22T12:55:33.860Z,100406.47
2022-08-22T12:58:12.023Z,100410.94
2022-08-22T13:00:45.240Z,100404.72
2022-08-22T13:03:25.116Z,100399.72
2022-08-22T13:05:57.015Z,100389.34
2022-08-22T13:08:32.603Z,100394.09
2022-08-22T13:11:03.195Z,100385.66
2022-08-22T13:13:41.354Z,100377.31
2022-08-22T13:16:12.323Z,100386.78
2022-08-22T13:18:53.596Z,100384.41
2022-08-22T13:21:31.634Z,100381.63
2022-08-22T13:24:10.879Z,100381.44
2022-08-22T13:26:49.106Z,100378.53
2022-08-22T13:29:26.169Z,100383.00
2022-08-22T13:32:00.375Z,100379.66
2022-08-22T13:34:40.582Z,100376.25
2022-08-22T13:37:17.457Z,100371.44
2022-08-22T13:39:54.687Z,100369.19
2022-08-22T13:42:30.309Z,100374.63
2022-08-22T13:45:04.345Z,100370.44
2022-08-22T13:47:39.235Z,100364.00
2022-08-22T13:50:14.168Z,100355.38
2022-08-22T13:52:49.259Z,100359.38
2022-08-22T13:55:29.703Z,100356.50
2022-08-22T13:58:06.898Z,100358.56
2022-08-22T14:01:16.436Z,100358.56
2022-08-22T14:03:48.791Z,100361.28
2022-08-22T14:06:36.842Z,100355.84
2022-08-22T14:09:15.077Z,100355.22
2022-08-22T14:11:51.965Z,100361.03
2022-08-22T14:14:27.392Z,100365.25
2022-08-22T14:16:58.212Z,100363.50
2022-08-22T14:19:48.992Z,100359.19
2022-08-22T14:22:32.079Z,100370.72
2022-08-22T14:25:07.165Z,100366.06
2022-08-22T14:27:43.959Z,100356.75
2022-08-22T14:30:18.668Z,100350.53
2022-08-22T14:32:52.221Z,100345.88
2022-08-22T14:35:34.647Z,100345.06
2022-08-22T14:38:17.901Z,100335.78
2022-08-22T14:40:46.731Z,100324.09
2022-08-22T14:43:23.937Z,100324.25
2022-08-22T14:46:02.230Z,100327.13
2022-08-22T14:48:40.548Z,100327.56
2022-08-22T14:51:11.665Z,100331.25
2022-08-22T14:53:41.549Z,100325.47
2022-08-22T14:56:12.469Z,100325.47
2022-08-22T14:58:52.467Z,100325.28
2022-08-22T15:01:24.311Z,100319.50
2022-08-22T15:03:55.451Z,100327.53
2022-08-22T15:06:37.261Z,100321.75
2022-08-22T15:09:09.274Z,100329.28
2022-08-22T15:11:42.317Z,100318.84
2022-08-22T15:14:23.203Z,100317.06
2022-08-22T15:16:55.507Z,100329.53
2022-08-22T15:19:27.622Z,100326.81
2022-08-22T15:22:11.344Z,100326.81
2022-08-22T15:24:45.234Z,100333.41
2022-08-22T15:27:19.108Z,100325.22
2022-08-22T15:29:53.411Z,100327.50
2022-08-22T15:32:23.458Z,100325.41
2022-08-22T15:35:03.571Z,100317.91
2022-08-22T15:37:34.949Z,100314.06
2022-08-22T15:40:12.070Z,100310.84
2022-08-22T15:42:43.368Z,100313.13
2022-08-22T15:45:23.993Z,100298.38
2022-08-22T15:47:54.424Z,100302.25
2022-08-22T15:50:35.826Z,100299.97
2022-08-22T15:53:16.295Z,100301.25
2022-08-22T15:56:15.443Z,100297.72
2022-08-22T15:58:49.176Z,100297.72
2022-08-22T16:01:22.215Z,100296.13
2022-08-22T16:03:56.813Z,100301.09
2022-08-22T16:06:43.748Z,100298.72
2022-08-22T16:09:35.769Z,100302.88
2022-08-22T16:12:09.498Z,100298.56
2022-08-22T16:14:50.876Z,100302.75
2022-08-22T16:17:45.020Z,100297.97
2022-08-22T16:20:57.029Z,100293.97
2022-08-22T16:23:24.980Z,100296.22
2022-08-22T16:26:12.355Z,100298.50
2022-08-22T16:28:58.169Z,100288.25
2022-08-22T16:31:31.275Z,100283.44
2022-08-22T16:34:24.395Z,100277.88
2022-08-22T16:37:43.946Z,100276.59
2022-08-22T16:40:18.586Z,100271.81
2022-08-22T16:42:50.767Z,100273.63
2022-08-22T16:45:22.207Z,100282.88
2022-08-22T16:47:58.099Z,100274.88
2022-08-22T16:50:34.821Z,100276.34
2022-08-22T16:53:10.034Z,100279.06
2022-08-22T16:56:13.952Z,100287.56
2022-08-22T16:59:22.062Z,100283.22
2022-08-22T17:02:07.349Z,100287.06
2022-08-22T17:04:41.613Z,100282.31
2022-08-22T17:07:20.328Z,100280.22
2022-08-22T17:10:13.100Z,100277.34
2022-08-22T17:13:06.901Z,100284.25
2022-08-22T17:15:41.978Z,100288.75
2022-08-22T17:18:20.017Z,100288.75
2022-08-22T17:20:54.073Z,100301.88
2022-08-22T17:23:36.704Z,100300.94
2022-08-22T17:26:18.982Z,100295.97
2022-08-22T17:28:57.657Z,100295.84
2022-08-22T17:31:34.426Z,100294.09
2022-08-22T17:34:18.597Z,100299.38
2022-08-22T17:37:04.914Z,100292.97
2022-08-22T17:40:04.494Z,100294.28
2022-08-22T17:42:46.727Z,100301.94
2022-08-22T17:45:27.545Z,100305.63
2022-08-22T17:48:03.937Z,100301.94
2022-08-22T17:50:39.545Z,100301.78
2022-08-22T17:53:16.490Z,100306.25
2022-08-22T17:56:05.759Z,100312.69
2022-08-22T17:58:43.933Z,100314.44
2022-08-22T18:01:16.552Z,100309.97
2022-08-22T18:03:53.402Z,100318.75
2022-08-22T18:06:25.389Z,100320.84
2022-08-22T18:09:15.187Z,100318.44
2022-08-22T18:11:51.681Z,100333.47
2022-08-22T18:14:30.979Z,100333.31
2022-08-22T18:17:00.940Z,100332.19
2022-08-22T18:19:43.355Z,100336.81
2022-08-22T18:22:20.661Z,100331.22
2022-08-22T18:24:55.734Z,100331.84
2022-08-22T18:27:34.662Z,100341.06
2022-08-22T18:30:08.173Z,100341.72
2022-08-22T18:32:43.880Z,100342.34
2022-08-22T18:35:17.997Z,100343.81
2022-08-22T18:37:56.423Z,100338.19
2022-08-22T18:40:34.483Z,100341.84
2022-08-22T18:43:14.501Z,100348.56
2022-08-22T18:46:05.917Z,100356.84
2022-08-22T18:48:59.367Z,100355.69
2022-08-22T18:51:34.857Z,100363.19
2022-08-22T18:54:32.424Z,100357.91
2022-08-22T18:57:09.356Z,100362.66
2022-08-22T18:59:59.218Z,100372.06
2022-08-22T19:03:05.421Z,100372.78
2022-08-22T19:06:02.211Z,100379.94
2022-08-22T19:09:18.412Z,100385.03
2022-08-22T19:11:56.705Z,100385.16
2022-08-22T19:14:43.204Z,100374.25
2022-08-22T19:17:28.638Z,100379.81
2022-08-22T19:20:19.651Z,100391.91
2022-08-22T19:22:51.085Z,100385.63
2022-08-22T19:25:26.154Z,100393.88
2022-08-22T19:28:23.993Z,100388.91
2022-08-22T19:30:53.402Z,100402.84
2022-08-22T19:33:34.690Z,100400.25
2022-08-22T19:36:10.800Z,100399.56
2022-08-22T19:38:56.722Z,100400.00
2022-08-22T19:41:47.157Z,100403.13
2022-08-22T19:44:34.612Z,100396.53
2022-08-22T19:47:13.372Z,100412.78
2022-08-22T19:49:48.757Z,100404.75
2022-08-22T19:52:23.925Z,100409.69
2022-08-22T19:54:59.840Z,100401.38
2022-08-22T19:57:42.715Z,100418.84
2022-08-22T20:00:14.042Z,100419.28
2022-08-22T20:02:57.415Z,100412.03
2022-08-22T20:05:37.334Z,100417.22
2022-08-22T20:08:24.938Z,100418.13
2022-08-22T20:11:03.949Z,100416.81
2022-08-22T20:13:35.285Z,100412.03
2022-08-22T20:16:14.155Z,100404.31
2022-08-22T20:19:00.255Z,100407.81
2022-08-22T20:21:46.647Z,100403.81
2022-08-22T20:24:21.021Z,100405.50
2022-08-22T20:27:12.653Z,100413.44
2022-08-22T20:29:48.010Z,100419.94
2022-08-22T20:32:19.430Z,100416.25
2022-08-22T20:34:50.327Z,100411.41
2022-08-22T20:37:44.991Z,100416.84
2022-08-22T20:40:54.504Z,100414.44
2022-08-22T20:43:17.968Z,100409.63
2022-08-22T20:45:59.481Z,100414.22
2022-08-22T20:48:37.672Z,100414.81
2022-08-22T20:51:06.878Z,100420.03
2022-08-22T20:53:37.521Z,100417.63
2022-08-22T20:56:08.123Z,100411.22
2022-08-22T20:58:39.079Z,100408.00
2022-08-22T21:01:08.552Z,100410.22
2022-08-22T21:03:42.447Z,100414.63
2022-08-22T21:06:13.622Z,100418.41
2022-08-22T21:08:43.960Z,100410.06
2022-08-22T21:11:38.394Z,100411.16
2022-08-22T21:14:19.456Z,100421.47
2022-08-22T21:16:47.527Z,100420.75
2022-08-22T21:19:20.348Z,100418.66
2022-08-22T21:21:48.477Z,100419.56
2022-08-22T21:24:17.940Z,100418.22
2022-08-22T21:26:50.786Z,100426.97
2022-08-22T21:29:32.705Z,100429.13
2022-08-22T21:32:12.778Z,100425.13
2022-08-22T21:34:44.907Z,100424.63
2022-08-22T21:37:16.975Z,100418.50
2022-08-22T21:39:49.137Z,100429.31
2022-08-22T21:42:24.716Z,100420.69
2022-08-22T21:44:57.425Z,100428.28
2022-08-22T21:47:37.780Z,100424.59
2022-08-22T21:50:26.727Z,100425.97
2022-08-22T21:53:04.501Z,100428.19
2022-08-22T21:55:35.245Z,100429.84
2022-08-22T21:58:36.749Z,100426.94
2022-08-22T22:01:27.799Z,100434.00
2022-08-22T22:03:56.328Z,100436.78
2022-08-22T22:06:24.148Z,100430.34
2022-08-22T22:08:52.533Z,100433.13
2022-08-22T22:11:22.450Z,100432.63
2022-08-22T22:13:50.909Z,100428.09
2022-08-22T22:16:25.062Z,100428.38
2022-08-22T22:18:53.313Z,100434.38
2022-08-22T22:21:21.508Z,100434.44
2022-08-22T22:23:50.958Z,100433.13
2022-08-22T22:26:21.040Z,100432.91
2022-08-22T22:28:51.672Z,100439.69
2022-08-22T22:31:19.802Z,100434.06
2022-08-22T22:33:47.827Z,100435.75
2022-08-22T22:36:21.367Z,100428.75
2022-08-22T22:38:52.168Z,100436.91
2022-08-22T22:41:25.580Z,100433.69
2022-08-22T22:43:55.855Z,100436.19
2022-08-22T22:46:24.350Z,100427.84
2022-08-22T22:48:53.922Z,100433.00
2022-08-22T22:51:22.226Z,100433.59
2022-08-22T22:53:51.148Z,100438.78
2022-08-22T22:56:23.801Z,100443.63
2022-08-22T22:59:01.024Z,100439.09
2022-08-22T23:02:01.458Z,100442.88
2022-08-22T23:04:30.036Z,100443.22
2022-08-22T23:06:58.514Z,100453.78
2022-08-22T23:09:38.107Z,100444.94
2022-08-22T23:12:13.041Z,100446.53
2022-08-22T23:14:41.532Z,100443.63
2022-08-22T23:17:11.303Z,100446.59
2022-08-22T23:19:40.732Z,100446.09
2022-08-22T23:22:10.710Z,100440.19
2022-08-22T23:24:40.681Z,100437.25
2022-08-22T23:27:10.751Z,100446.44
2022-08-22T23:29:43.241Z,100446.19
2022-08-22T23:32:13.900Z,100435.97
2022-08-22T23:34:46.374Z,100439.78
2022-08-22T23:37:18.678Z,100436.56
2022-08-22T23:39:47.700Z,100440.63
2022-08-22T23:42:17.001Z,100440.13
2022-08-22T23:44:46.417Z,100431.47
2022-08-22T23:47:16.818Z,100434.47
2022-08-22T23:49:45.264Z,100445.84
2022-08-22T23:52:14.916Z,100436.41
2022-08-22T23:54:43.134Z,100437.78
2022-08-22T23:57:11.967Z,100439.97
2022-08-22T23:59:48.084Z,100436.75
